sensor_id;sensor_type;location;lat;lon;timestamp;temperature;humidity
53962;DHT22;39868;53.398;6.564;2023-08-12T00:01:11;21.70;77.70
53962;DHT22;39868;53.398;6.564;2023-08-12T00:03:39;21.70;77.70
53962;DHT22;39868;53.398;6.564;2023-08-12T00:06:06;21.70;77.80
53962;DHT22;39868;53.398;6.564;2023-08-12T00:08:33;21.70;77.80
53962;DHT22;39868;53.398;6.564;2023-08-12T00:11:01;21.70;77.80
53962;DHT22;39868;53.398;6.564;2023-08-12T00:13:28;21.70;77.80
53962;DHT22;39868;53.398;6.564;2023-08-12T00:15:55;21.60;77.80
53962;DHT22;39868;53.398;6.564;2023-08-12T00:18:23;21.60;77.80
53962;DHT22;39868;53.398;6.564;2023-08-12T00:20:50;21.60;77.80
53962;DHT22;39868;53.398;6.564;2023-08-12T00:23:18;21.60;77.90
53962;DHT22;39868;53.398;6.564;2023-08-12T00:25:45;21.60;77.90
53962;DHT22;39868;53.398;6.564;2023-08-12T00:28:13;21.60;78.00
53962;DHT22;39868;53.398;6.564;2023-08-12T00:30:40;21.60;78.00
53962;DHT22;39868;53.398;6.564;2023-08-12T00:33:07;21.60;78.00
53962;DHT22;39868;53.398;6.564;2023-08-12T00:35:35;21.60;78.20
53962;DHT22;39868;53.398;6.564;2023-08-12T00:38:02;21.60;78.20
53962;DHT22;39868;53.398;6.564;2023-08-12T00:40:30;21.60;78.20
53962;DHT22;39868;53.398;6.564;2023-08-12T00:42:57;21.60;78.20
53962;DHT22;39868;53.398;6.564;2023-08-12T00:45:24;21.70;78.20
53962;DHT22;39868;53.398;6.564;2023-08-12T00:47:52;21.60;78.20
53962;DHT22;39868;53.398;6.564;2023-08-12T00:50:19;21.70;78.30
53962;DHT22;39868;53.398;6.564;2023-08-12T00:52:47;21.70;78.30
53962;DHT22;39868;53.398;6.564;2023-08-12T00:55:14;21.70;78.40
53962;DHT22;39868;53.398;6.564;2023-08-12T00:57:42;21.70;78.40
53962;DHT22;39868;53.398;6.564;2023-08-12T01:00:09;21.80;78.40
53962;DHT22;39868;53.398;6.564;2023-08-12T01:02:41;21.80;78.40
53962;DHT22;39868;53.398;6.564;2023-08-12T01:05:11;21.70;78.40
53962;DHT22;39868;53.398;6.564;2023-08-12T01:07:38;21.80;78.40
53962;DHT22;39868;53.398;6.564;2023-08-12T01:10:06;21.80;78.50
53962;DHT22;39868;53.398;6.564;2023-08-12T01:12:35;21.80;78.50
53962;DHT22;39868;53.398;6.564;2023-08-12T01:17:32;21.80;78.50
53962;DHT22;39868;53.398;6.564;2023-08-12T01:20:01;21.80;78.60
53962;DHT22;39868;53.398;6.564;2023-08-12T01:22:29;21.80;78.60
53962;DHT22;39868;53.398;6.564;2023-08-12T01:24:59;21.80;78.60
53962;DHT22;39868;53.398;6.564;2023-08-12T01:27:27;21.80;78.60
53962;DHT22;39868;53.398;6.564;2023-08-12T01:29:54;21.90;78.70
53962;DHT22;39868;53.398;6.564;2023-08-12T01:34:50;21.90;78.70
53962;DHT22;39868;53.398;6.564;2023-08-12T01:37:23;21.90;78.80
53962;DHT22;39868;53.398;6.564;2023-08-12T01:39:51;21.90;78.80
53962;DHT22;39868;53.398;6.564;2023-08-12T01:42:19;21.90;78.80
53962;DHT22;39868;53.398;6.564;2023-08-12T01:44:46;21.90;78.70
53962;DHT22;39868;53.398;6.564;2023-08-12T01:47:15;21.90;78.70
53962;DHT22;39868;53.398;6.564;2023-08-12T01:49:42;21.90;78.70
53962;DHT22;39868;53.398;6.564;2023-08-12T01:52:09;21.90;78.70
53962;DHT22;39868;53.398;6.564;2023-08-12T01:54:37;21.90;78.70
53962;DHT22;39868;53.398;6.564;2023-08-12T01:57:06;21.90;78.70
53962;DHT22;39868;53.398;6.564;2023-08-12T01:59:37;21.90;78.70
53962;DHT22;39868;53.398;6.564;2023-08-12T02:02:04;21.90;78.70
53962;DHT22;39868;53.398;6.564;2023-08-12T02:04:32;21.90;78.70
53962;DHT22;39868;53.398;6.564;2023-08-12T02:06:59;21.90;78.70
53962;DHT22;39868;53.398;6.564;2023-08-12T02:09:27;21.90;78.70
53962;DHT22;39868;53.398;6.564;2023-08-12T02:11:54;21.80;78.70
53962;DHT22;39868;53.398;6.564;2023-08-12T02:14:21;21.80;78.70
53962;DHT22;39868;53.398;6.564;2023-08-12T02:16:48;21.80;78.70
53962;DHT22;39868;53.398;6.564;2023-08-12T02:19:15;21.80;78.80
53962;DHT22;39868;53.398;6.564;2023-08-12T02:21:43;21.80;78.80
53962;DHT22;39868;53.398;6.564;2023-08-12T02:24:10;21.80;78.80
53962;DHT22;39868;53.398;6.564;2023-08-12T02:26:37;21.80;78.90
53962;DHT22;39868;53.398;6.564;2023-08-12T02:29:05;21.80;78.90
53962;DHT22;39868;53.398;6.564;2023-08-12T02:31:32;21.80;78.90
53962;DHT22;39868;53.398;6.564;2023-08-12T02:34:00;21.80;79.00
53962;DHT22;39868;53.398;6.564;2023-08-12T02:36:27;21.80;79.00
53962;DHT22;39868;53.398;6.564;2023-08-12T02:38:54;21.80;79.00
53962;DHT22;39868;53.398;6.564;2023-08-12T02:41:22;21.80;79.00
53962;DHT22;39868;53.398;6.564;2023-08-12T02:43:50;21.80;79.00
53962;DHT22;39868;53.398;6.564;2023-08-12T02:46:17;21.80;79.10
53962;DHT22;39868;53.398;6.564;2023-08-12T02:48:45;21.80;79.10
53962;DHT22;39868;53.398;6.564;2023-08-12T02:51:14;21.80;79.10
53962;DHT22;39868;53.398;6.564;2023-08-12T02:53:41;21.80;79.10
53962;DHT22;39868;53.398;6.564;2023-08-12T02:56:08;21.80;79.10
53962;DHT22;39868;53.398;6.564;2023-08-12T02:58:36;21.80;79.10
53962;DHT22;39868;53.398;6.564;2023-08-12T03:01:04;21.80;79.20
53962;DHT22;39868;53.398;6.564;2023-08-12T03:03:32;21.80;79.20
53962;DHT22;39868;53.398;6.564;2023-08-12T03:05:59;21.80;79.20
53962;DHT22;39868;53.398;6.564;2023-08-12T03:08:28;21.80;79.20
53962;DHT22;39868;53.398;6.564;2023-08-12T03:11:00;21.80;79.20
53962;DHT22;39868;53.398;6.564;2023-08-12T03:13:28;21.80;79.30
53962;DHT22;39868;53.398;6.564;2023-08-12T03:15:56;21.80;79.30
53962;DHT22;39868;53.398;6.564;2023-08-12T03:18:24;21.80;79.40
53962;DHT22;39868;53.398;6.564;2023-08-12T03:20:52;21.80;79.30
53962;DHT22;39868;53.398;6.564;2023-08-12T03:23:22;21.80;79.40
53962;DHT22;39868;53.398;6.564;2023-08-12T03:25:50;21.90;79.40
53962;DHT22;39868;53.398;6.564;2023-08-12T03:28:18;21.80;79.40
53962;DHT22;39868;53.398;6.564;2023-08-12T03:30:51;21.90;79.40
53962;DHT22;39868;53.398;6.564;2023-08-12T03:33:21;21.80;79.40
53962;DHT22;39868;53.398;6.564;2023-08-12T03:35:48;21.80;79.40
53962;DHT22;39868;53.398;6.564;2023-08-12T03:38:17;21.80;79.40
53962;DHT22;39868;53.398;6.564;2023-08-12T03:40:45;21.80;79.40
53962;DHT22;39868;53.398;6.564;2023-08-12T03:43:15;21.80;79.50
53962;DHT22;39868;53.398;6.564;2023-08-12T03:45:44;21.80;79.50
53962;DHT22;39868;53.398;6.564;2023-08-12T03:48:14;21.80;79.50
53962;DHT22;39868;53.398;6.564;2023-08-12T03:50:41;21.80;79.60
53962;DHT22;39868;53.398;6.564;2023-08-12T03:53:09;21.80;79.60
53962;DHT22;39868;53.398;6.564;2023-08-12T03:55:38;21.80;79.60
53962;DHT22;39868;53.398;6.564;2023-08-12T03:58:07;21.80;79.70
53962;DHT22;39868;53.398;6.564;2023-08-12T04:00:34;21.80;79.70
53962;DHT22;39868;53.398;6.564;2023-08-12T04:03:02;21.80;79.70
53962;DHT22;39868;53.398;6.564;2023-08-12T04:05:29;21.80;79.70
53962;DHT22;39868;53.398;6.564;2023-08-12T04:07:57;21.90;79.80
53962;DHT22;39868;53.398;6.564;2023-08-12T04:10:24;21.80;79.70
53962;DHT22;39868;53.398;6.564;2023-08-12T04:12:52;21.90;79.80
53962;DHT22;39868;53.398;6.564;2023-08-12T04:15:19;21.90;79.80
53962;DHT22;39868;53.398;6.564;2023-08-12T04:17:48;21.90;79.80
53962;DHT22;39868;53.398;6.564;2023-08-12T04:20:15;21.90;79.80
53962;DHT22;39868;53.398;6.564;2023-08-12T04:22:42;21.90;79.90
53962;DHT22;39868;53.398;6.564;2023-08-12T04:25:09;21.90;79.90
53962;DHT22;39868;53.398;6.564;2023-08-12T04:27:37;21.90;79.80
53962;DHT22;39868;53.398;6.564;2023-08-12T04:30:04;21.90;79.80
53962;DHT22;39868;53.398;6.564;2023-08-12T04:32:32;21.80;79.80
53962;DHT22;39868;53.398;6.564;2023-08-12T04:34:59;21.80;79.80
53962;DHT22;39868;53.398;6.564;2023-08-12T04:37:27;21.80;79.80
53962;DHT22;39868;53.398;6.564;2023-08-12T04:39:56;21.80;79.80
53962;DHT22;39868;53.398;6.564;2023-08-12T04:42:23;21.80;79.80
53962;DHT22;39868;53.398;6.564;2023-08-12T04:44:50;21.80;79.90
53962;DHT22;39868;53.398;6.564;2023-08-12T04:47:18;21.70;79.80
53962;DHT22;39868;53.398;6.564;2023-08-12T04:49:45;21.70;79.90
53962;DHT22;39868;53.398;6.564;2023-08-12T04:52:12;21.70;79.90
53962;DHT22;39868;53.398;6.564;2023-08-12T04:54:40;21.70;79.90
53962;DHT22;39868;53.398;6.564;2023-08-12T04:57:07;21.70;80.00
53962;DHT22;39868;53.398;6.564;2023-08-12T04:59:34;21.70;80.00
53962;DHT22;39868;53.398;6.564;2023-08-12T05:02:02;21.70;80.00
53962;DHT22;39868;53.398;6.564;2023-08-12T05:04:33;21.70;80.10
53962;DHT22;39868;53.398;6.564;2023-08-12T05:07:00;21.70;80.10
53962;DHT22;39868;53.398;6.564;2023-08-12T05:09:28;21.70;80.10
53962;DHT22;39868;53.398;6.564;2023-08-12T05:11:56;21.70;80.10
53962;DHT22;39868;53.398;6.564;2023-08-12T05:14:23;21.70;80.10
53962;DHT22;39868;53.398;6.564;2023-08-12T05:16:51;21.70;80.20
53962;DHT22;39868;53.398;6.564;2023-08-12T05:19:18;21.70;80.20
53962;DHT22;39868;53.398;6.564;2023-08-12T05:21:45;21.80;80.30
53962;DHT22;39868;53.398;6.564;2023-08-12T05:24:12;21.80;80.40
53962;DHT22;39868;53.398;6.564;2023-08-12T05:26:41;21.80;80.40
53962;DHT22;39868;53.398;6.564;2023-08-12T05:29:08;21.80;80.40
53962;DHT22;39868;53.398;6.564;2023-08-12T05:31:36;21.80;80.50
53962;DHT22;39868;53.398;6.564;2023-08-12T05:34:04;21.90;80.60
53962;DHT22;39868;53.398;6.564;2023-08-12T05:36:31;21.90;80.70
53962;DHT22;39868;53.398;6.564;2023-08-12T05:38:58;21.90;80.70
53962;DHT22;39868;53.398;6.564;2023-08-12T05:41:25;22.00;80.80
53962;DHT22;39868;53.398;6.564;2023-08-12T05:43:53;22.00;80.90
53962;DHT22;39868;53.398;6.564;2023-08-12T05:46:20;22.00;80.90
53962;DHT22;39868;53.398;6.564;2023-08-12T05:48:47;22.10;80.90
53962;DHT22;39868;53.398;6.564;2023-08-12T05:51:15;22.20;81.00
53962;DHT22;39868;53.398;6.564;2023-08-12T05:53:42;22.20;81.00
53962;DHT22;39868;53.398;6.564;2023-08-12T05:56:09;22.30;81.10
53962;DHT22;39868;53.398;6.564;2023-08-12T05:58:36;22.30;81.10
53962;DHT22;39868;53.398;6.564;2023-08-12T06:01:04;22.40;81.20
53962;DHT22;39868;53.398;6.564;2023-08-12T06:03:31;22.50;81.30
53962;DHT22;39868;53.398;6.564;2023-08-12T06:05:58;22.50;81.20
53962;DHT22;39868;53.398;6.564;2023-08-12T06:08:26;22.50;81.80
53962;DHT22;39868;53.398;6.564;2023-08-12T06:10:54;22.60;81.30
53962;DHT22;39868;53.398;6.564;2023-08-12T06:13:21;22.60;81.30
53962;DHT22;39868;53.398;6.564;2023-08-12T06:15:48;22.70;81.50
53962;DHT22;39868;53.398;6.564;2023-08-12T06:18:15;22.70;81.30
53962;DHT22;39868;53.398;6.564;2023-08-12T06:20:43;22.80;81.40
53962;DHT22;39868;53.398;6.564;2023-08-12T06:23:10;22.90;81.40
53962;DHT22;39868;53.398;6.564;2023-08-12T06:25:37;23.00;81.40
53962;DHT22;39868;53.398;6.564;2023-08-12T06:28:05;23.00;81.40
53962;DHT22;39868;53.398;6.564;2023-08-12T06:30:35;23.00;81.40
53962;DHT22;39868;53.398;6.564;2023-08-12T06:33:02;23.10;81.40
53962;DHT22;39868;53.398;6.564;2023-08-12T06:35:30;23.10;81.40
53962;DHT22;39868;53.398;6.564;2023-08-12T06:37:57;23.20;81.40
53962;DHT22;39868;53.398;6.564;2023-08-12T06:40:24;23.20;81.40
53962;DHT22;39868;53.398;6.564;2023-08-12T06:42:51;23.20;81.30
53962;DHT22;39868;53.398;6.564;2023-08-12T06:45:18;23.30;81.30
53962;DHT22;39868;53.398;6.564;2023-08-12T06:47:46;23.30;81.30
53962;DHT22;39868;53.398;6.564;2023-08-12T06:50:13;23.30;81.30
53962;DHT22;39868;53.398;6.564;2023-08-12T06:52:40;23.30;81.30
53962;DHT22;39868;53.398;6.564;2023-08-12T06:55:08;23.40;81.30
53962;DHT22;39868;53.398;6.564;2023-08-12T06:57:35;23.40;81.20
53962;DHT22;39868;53.398;6.564;2023-08-12T07:00:03;23.40;81.20
53962;DHT22;39868;53.398;6.564;2023-08-12T07:02:31;23.40;81.20
53962;DHT22;39868;53.398;6.564;2023-08-12T07:04:58;23.50;81.20
53962;DHT22;39868;53.398;6.564;2023-08-12T07:07:25;23.50;81.30
53962;DHT22;39868;53.398;6.564;2023-08-12T07:09:53;23.50;81.10
53962;DHT22;39868;53.398;6.564;2023-08-12T07:12:20;23.50;81.10
53962;DHT22;39868;53.398;6.564;2023-08-12T07:14:47;23.50;81.10
53962;DHT22;39868;53.398;6.564;2023-08-12T07:17:14;23.50;81.10
53962;DHT22;39868;53.398;6.564;2023-08-12T07:19:42;23.50;81.10
53962;DHT22;39868;53.398;6.564;2023-08-12T07:22:09;23.50;81.10
53962;DHT22;39868;53.398;6.564;2023-08-12T07:24:37;23.60;81.10
53962;DHT22;39868;53.398;6.564;2023-08-12T07:27:04;23.60;81.10
53962;DHT22;39868;53.398;6.564;2023-08-12T07:29:33;23.60;81.10
53962;DHT22;39868;53.398;6.564;2023-08-12T07:32:00;23.60;81.10
53962;DHT22;39868;53.398;6.564;2023-08-12T07:34:28;23.60;81.10
53962;DHT22;39868;53.398;6.564;2023-08-12T07:36:57;23.60;81.10
53962;DHT22;39868;53.398;6.564;2023-08-12T07:39:24;23.60;81.20
53962;DHT22;39868;53.398;6.564;2023-08-12T07:41:52;23.60;81.20
53962;DHT22;39868;53.398;6.564;2023-08-12T07:44:19;23.70;81.20
53962;DHT22;39868;53.398;6.564;2023-08-12T07:46:46;23.70;81.30
53962;DHT22;39868;53.398;6.564;2023-08-12T07:49:13;23.70;81.20
53962;DHT22;39868;53.398;6.564;2023-08-12T07:51:41;23.70;81.30
53962;DHT22;39868;53.398;6.564;2023-08-12T07:54:08;23.70;81.30
53962;DHT22;39868;53.398;6.564;2023-08-12T07:56:35;23.80;81.30
53962;DHT22;39868;53.398;6.564;2023-08-12T07:59:03;23.80;81.30
53962;DHT22;39868;53.398;6.564;2023-08-12T08:01:30;23.80;81.30
53962;DHT22;39868;53.398;6.564;2023-08-12T08:03:57;23.90;81.30
53962;DHT22;39868;53.398;6.564;2023-08-12T08:06:25;23.90;81.30
53962;DHT22;39868;53.398;6.564;2023-08-12T08:08:52;23.90;81.30
53962;DHT22;39868;53.398;6.564;2023-08-12T08:11:19;23.90;81.30
53962;DHT22;39868;53.398;6.564;2023-08-12T08:13:46;23.90;81.30
53962;DHT22;39868;53.398;6.564;2023-08-12T08:16:14;23.90;81.30
53962;DHT22;39868;53.398;6.564;2023-08-12T08:18:41;24.00;81.30
53962;DHT22;39868;53.398;6.564;2023-08-12T08:21:17;24.00;81.30
53962;DHT22;39868;53.398;6.564;2023-08-12T08:23:45;24.00;81.30
53962;DHT22;39868;53.398;6.564;2023-08-12T08:26:13;24.00;81.30
53962;DHT22;39868;53.398;6.564;2023-08-12T08:28:42;24.00;81.30
53962;DHT22;39868;53.398;6.564;2023-08-12T08:31:09;24.00;81.30
53962;DHT22;39868;53.398;6.564;2023-08-12T08:33:37;24.10;81.30
53962;DHT22;39868;53.398;6.564;2023-08-12T08:36:04;24.10;81.30
53962;DHT22;39868;53.398;6.564;2023-08-12T08:38:32;24.10;81.30
53962;DHT22;39868;53.398;6.564;2023-08-12T08:40:59;24.10;81.30
53962;DHT22;39868;53.398;6.564;2023-08-12T08:43:27;24.10;81.30
53962;DHT22;39868;53.398;6.564;2023-08-12T08:45:55;24.20;81.30
53962;DHT22;39868;53.398;6.564;2023-08-12T08:48:23;24.20;81.30
53962;DHT22;39868;53.398;6.564;2023-08-12T08:50:50;24.20;81.30
53962;DHT22;39868;53.398;6.564;2023-08-12T08:53:18;24.20;81.20
53962;DHT22;39868;53.398;6.564;2023-08-12T08:55:46;24.20;81.20
53962;DHT22;39868;53.398;6.564;2023-08-12T08:58:14;24.20;81.20
53962;DHT22;39868;53.398;6.564;2023-08-12T09:00:48;24.20;81.20
53962;DHT22;39868;53.398;6.564;2023-08-12T09:03:16;24.20;81.20
53962;DHT22;39868;53.398;6.564;2023-08-12T09:05:43;24.20;81.10
53962;DHT22;39868;53.398;6.564;2023-08-12T09:08:11;24.10;81.10
53962;DHT22;39868;53.398;6.564;2023-08-12T09:10:40;24.10;81.10
53962;DHT22;39868;53.398;6.564;2023-08-12T09:13:08;24.10;81.10
53962;DHT22;39868;53.398;6.564;2023-08-12T09:15:36;24.10;81.10
53962;DHT22;39868;53.398;6.564;2023-08-12T09:18:06;24.10;81.20
53962;DHT22;39868;53.398;6.564;2023-08-12T09:20:34;24.10;81.20
53962;DHT22;39868;53.398;6.564;2023-08-12T09:23:01;24.10;81.30
53962;DHT22;39868;53.398;6.564;2023-08-12T09:25:29;24.10;81.40
53962;DHT22;39868;53.398;6.564;2023-08-12T09:28:00;24.10;81.40
53962;DHT22;39868;53.398;6.564;2023-08-12T09:30:30;24.10;81.40
53962;DHT22;39868;53.398;6.564;2023-08-12T09:33:01;24.10;81.40
53962;DHT22;39868;53.398;6.564;2023-08-12T09:35:37;24.10;81.40
53962;DHT22;39868;53.398;6.564;2023-08-12T09:38:06;24.10;81.40
53962;DHT22;39868;53.398;6.564;2023-08-12T09:40:33;24.10;81.50
53962;DHT22;39868;53.398;6.564;2023-08-12T09:43:01;24.10;81.50
53962;DHT22;39868;53.398;6.564;2023-08-12T09:45:30;24.10;81.50
53962;DHT22;39868;53.398;6.564;2023-08-12T09:47:58;24.10;81.60
53962;DHT22;39868;53.398;6.564;2023-08-12T09:50:28;24.10;81.60
53962;DHT22;39868;53.398;6.564;2023-08-12T09:52:55;24.10;81.60
53962;DHT22;39868;53.398;6.564;2023-08-12T09:55:24;24.10;81.60
53962;DHT22;39868;53.398;6.564;2023-08-12T09:57:51;24.10;81.60
53962;DHT22;39868;53.398;6.564;2023-08-12T10:00:20;24.10;81.60
53962;DHT22;39868;53.398;6.564;2023-08-12T10:02:48;24.10;81.60
53962;DHT22;39868;53.398;6.564;2023-08-12T10:05:27;24.10;81.60
53962;DHT22;39868;53.398;6.564;2023-08-12T10:07:54;24.00;81.60
53962;DHT22;39868;53.398;6.564;2023-08-12T10:10:22;24.00;81.70
53962;DHT22;39868;53.398;6.564;2023-08-12T10:12:49;24.00;81.70
53962;DHT22;39868;53.398;6.564;2023-08-12T10:15:17;24.00;81.70
53962;DHT22;39868;53.398;6.564;2023-08-12T10:17:44;24.00;81.70
53962;DHT22;39868;53.398;6.564;2023-08-12T10:20:17;24.00;82.10
53962;DHT22;39868;53.398;6.564;2023-08-12T10:22:47;24.00;81.80
53962;DHT22;39868;53.398;6.564;2023-08-12T10:25:14;24.00;81.90
53962;DHT22;39868;53.398;6.564;2023-08-12T10:27:42;24.00;81.90
53962;DHT22;39868;53.398;6.564;2023-08-12T10:30:12;24.00;81.90
53962;DHT22;39868;53.398;6.564;2023-08-12T10:32:39;24.00;81.90
53962;DHT22;39868;53.398;6.564;2023-08-12T10:35:07;24.00;81.90
53962;DHT22;39868;53.398;6.564;2023-08-12T10:37:35;24.00;81.90
53962;DHT22;39868;53.398;6.564;2023-08-12T10:40:03;24.00;81.90
53962;DHT22;39868;53.398;6.564;2023-08-12T10:42:44;24.00;82.00
53962;DHT22;39868;53.398;6.564;2023-08-12T10:45:12;24.00;81.90
53962;DHT22;39868;53.398;6.564;2023-08-12T10:47:43;24.00;82.00
53962;DHT22;39868;53.398;6.564;2023-08-12T10:50:18;24.00;82.00
53962;DHT22;39868;53.398;6.564;2023-08-12T10:52:46;24.00;82.00
53962;DHT22;39868;53.398;6.564;2023-08-12T10:55:20;24.00;82.10
53962;DHT22;39868;53.398;6.564;2023-08-12T10:57:49;24.10;82.70
53962;DHT22;39868;53.398;6.564;2023-08-12T11:00:24;24.10;82.30
53962;DHT22;39868;53.398;6.564;2023-08-12T11:02:55;24.20;82.40
53962;DHT22;39868;53.398;6.564;2023-08-12T11:05:24;24.20;82.40
53962;DHT22;39868;53.398;6.564;2023-08-12T11:07:58;24.20;82.50
53962;DHT22;39868;53.398;6.564;2023-08-12T11:10:30;24.30;82.50
53962;DHT22;39868;53.398;6.564;2023-08-12T11:13:00;24.30;82.50
53962;DHT22;39868;53.398;6.564;2023-08-12T11:15:34;24.40;82.60
53962;DHT22;39868;53.398;6.564;2023-08-12T11:18:16;24.40;82.60
53962;DHT22;39868;53.398;6.564;2023-08-12T11:20:45;24.40;82.60
53962;DHT22;39868;53.398;6.564;2023-08-12T11:23:12;24.50;82.60
53962;DHT22;39868;53.398;6.564;2023-08-12T11:25:40;24.50;82.60
53962;DHT22;39868;53.398;6.564;2023-08-12T11:28:08;24.50;82.60
53962;DHT22;39868;53.398;6.564;2023-08-12T11:30:36;24.50;82.60
53962;DHT22;39868;53.398;6.564;2023-08-12T11:33:03;24.60;82.70
53962;DHT22;39868;53.398;6.564;2023-08-12T11:35:31;24.60;82.70
53962;DHT22;39868;53.398;6.564;2023-08-12T11:37:58;24.60;82.70
53962;DHT22;39868;53.398;6.564;2023-08-12T11:40:26;24.70;82.80
53962;DHT22;39868;53.398;6.564;2023-08-12T11:42:54;24.70;82.80
53962;DHT22;39868;53.398;6.564;2023-08-12T11:45:22;24.70;82.80
53962;DHT22;39868;53.398;6.564;2023-08-12T11:47:50;24.70;82.70
53962;DHT22;39868;53.398;6.564;2023-08-12T11:50:23;24.70;82.70
53962;DHT22;39868;53.398;6.564;2023-08-12T11:52:50;24.70;82.70
53962;DHT22;39868;53.398;6.564;2023-08-12T11:55:18;24.70;82.60
53962;DHT22;39868;53.398;6.564;2023-08-12T11:57:45;24.60;82.20
53962;DHT22;39868;53.398;6.564;2023-08-12T12:00:13;24.50;81.70
53962;DHT22;39868;53.398;6.564;2023-08-12T12:02:48;24.40;81.10
53962;DHT22;39868;53.398;6.564;2023-08-12T12:05:17;24.20;80.40
53962;DHT22;39868;53.398;6.564;2023-08-12T12:07:49;24.00;80.00
53962;DHT22;39868;53.398;6.564;2023-08-12T12:12:47;23.70;80.00
53962;DHT22;39868;53.398;6.564;2023-08-12T12:15:14;23.50;80.00
53962;DHT22;39868;53.398;6.564;2023-08-12T12:17:47;23.30;80.10
53962;DHT22;39868;53.398;6.564;2023-08-12T12:20:16;23.10;80.10
53962;DHT22;39868;53.398;6.564;2023-08-12T12:22:44;22.90;80.20
53962;DHT22;39868;53.398;6.564;2023-08-12T12:25:12;22.70;80.40
53962;DHT22;39868;53.398;6.564;2023-08-12T12:27:41;22.60;80.60
53962;DHT22;39868;53.398;6.564;2023-08-12T12:30:09;22.50;80.70
53962;DHT22;39868;53.398;6.564;2023-08-12T12:32:37;22.40;80.90
53962;DHT22;39868;53.398;6.564;2023-08-12T12:35:04;22.30;81.00
53962;DHT22;39868;53.398;6.564;2023-08-12T12:37:34;22.20;81.10
53962;DHT22;39868;53.398;6.564;2023-08-12T12:40:02;22.10;81.20
53962;DHT22;39868;53.398;6.564;2023-08-12T12:42:30;22.10;81.40
53962;DHT22;39868;53.398;6.564;2023-08-12T12:44:57;22.00;81.50
53962;DHT22;39868;53.398;6.564;2023-08-12T12:47:24;22.00;81.60
53962;DHT22;39868;53.398;6.564;2023-08-12T12:49:52;22.00;81.80
53962;DHT22;39868;53.398;6.564;2023-08-12T12:52:19;21.90;81.90
53962;DHT22;39868;53.398;6.564;2023-08-12T12:54:46;22.00;82.10
53962;DHT22;39868;53.398;6.564;2023-08-12T12:57:14;22.00;82.20
53962;DHT22;39868;53.398;6.564;2023-08-12T12:59:41;22.00;82.30
53962;DHT22;39868;53.398;6.564;2023-08-12T13:02:08;22.00;82.30
53962;DHT22;39868;53.398;6.564;2023-08-12T13:04:36;22.10;82.50
53962;DHT22;39868;53.398;6.564;2023-08-12T13:07:03;22.10;82.60
53962;DHT22;39868;53.398;6.564;2023-08-12T13:09:30;22.10;82.60
53962;DHT22;39868;53.398;6.564;2023-08-12T13:11:58;22.10;82.50
53962;DHT22;39868;53.398;6.564;2023-08-12T13:14:25;22.10;82.50
53962;DHT22;39868;53.398;6.564;2023-08-12T13:16:52;22.10;82.60
53962;DHT22;39868;53.398;6.564;2023-08-12T13:19:20;22.20;82.60
53962;DHT22;39868;53.398;6.564;2023-08-12T13:21:47;22.20;82.50
53962;DHT22;39868;53.398;6.564;2023-08-12T13:24:14;22.20;82.40
53962;DHT22;39868;53.398;6.564;2023-08-12T13:26:42;22.20;82.30
53962;DHT22;39868;53.398;6.564;2023-08-12T13:29:09;22.20;82.30
53962;DHT22;39868;53.398;6.564;2023-08-12T13:31:36;22.30;82.40
53962;DHT22;39868;53.398;6.564;2023-08-12T13:34:04;22.40;82.70
53962;DHT22;39868;53.398;6.564;2023-08-12T13:36:31;22.50;82.90
53962;DHT22;39868;53.398;6.564;2023-08-12T13:38:58;22.60;83.10
53962;DHT22;39868;53.398;6.564;2023-08-12T13:41:27;22.70;83.20
53962;DHT22;39868;53.398;6.564;2023-08-12T13:43:54;22.90;83.40
53962;DHT22;39868;53.398;6.564;2023-08-12T13:46:21;23.00;83.60
53962;DHT22;39868;53.398;6.564;2023-08-12T13:48:49;23.10;83.50
53962;DHT22;39868;53.398;6.564;2023-08-12T13:51:16;23.20;83.30
53962;DHT22;39868;53.398;6.564;2023-08-12T13:53:43;23.30;83.20
53962;DHT22;39868;53.398;6.564;2023-08-12T13:56:10;23.40;83.20
53962;DHT22;39868;53.398;6.564;2023-08-12T13:58:38;23.50;83.30
53962;DHT22;39868;53.398;6.564;2023-08-12T14:01:05;23.70;83.40
53962;DHT22;39868;53.398;6.564;2023-08-12T14:03:33;23.80;83.40
53962;DHT22;39868;53.398;6.564;2023-08-12T14:06:00;24.00;83.30
53962;DHT22;39868;53.398;6.564;2023-08-12T14:08:28;24.10;83.10
53962;DHT22;39868;53.398;6.564;2023-08-12T14:10:55;24.20;82.80
53962;DHT22;39868;53.398;6.564;2023-08-12T14:13:22;24.40;82.80
53962;DHT22;39868;53.398;6.564;2023-08-12T14:15:49;24.50;82.80
53962;DHT22;39868;53.398;6.564;2023-08-12T14:18:17;24.70;82.90
53962;DHT22;39868;53.398;6.564;2023-08-12T14:20:44;24.90;82.70
53962;DHT22;39868;53.398;6.564;2023-08-12T14:23:11;25.00;81.90
53962;DHT22;39868;53.398;6.564;2023-08-12T14:25:39;25.20;81.30
53962;DHT22;39868;53.398;6.564;2023-08-12T14:28:07;25.30;81.00
53962;DHT22;39868;53.398;6.564;2023-08-12T14:30:34;25.50;80.50
53962;DHT22;39868;53.398;6.564;2023-08-12T14:33:01;25.50;79.80
53962;DHT22;39868;53.398;6.564;2023-08-12T14:35:28;25.60;79.20
53962;DHT22;39868;53.398;6.564;2023-08-12T14:37:55;25.70;79.00
53962;DHT22;39868;53.398;6.564;2023-08-12T14:40:23;25.80;79.00
53962;DHT22;39868;53.398;6.564;2023-08-12T14:42:50;25.90;78.40
53962;DHT22;39868;53.398;6.564;2023-08-12T14:45:17;26.00;78.30
53962;DHT22;39868;53.398;6.564;2023-08-12T14:47:45;26.10;78.30
53962;DHT22;39868;53.398;6.564;2023-08-12T14:50:12;26.10;77.50
53962;DHT22;39868;53.398;6.564;2023-08-12T14:52:39;26.10;77.20
53962;DHT22;39868;53.398;6.564;2023-08-12T14:55:07;26.10;76.80
53962;DHT22;39868;53.398;6.564;2023-08-12T14:57:34;26.10;75.80
53962;DHT22;39868;53.398;6.564;2023-08-12T15:00:01;26.10;76.20
53962;DHT22;39868;53.398;6.564;2023-08-12T15:02:29;26.00;75.50
53962;DHT22;39868;53.398;6.564;2023-08-12T15:05:01;26.00;74.80
53962;DHT22;39868;53.398;6.564;2023-08-12T15:07:29;25.90;74.10
53962;DHT22;39868;53.398;6.564;2023-08-12T15:09:56;25.90;74.30
53962;DHT22;39868;53.398;6.564;2023-08-12T15:12:25;25.90;74.20
53962;DHT22;39868;53.398;6.564;2023-08-12T15:14:54;25.80;74.60
53962;DHT22;39868;53.398;6.564;2023-08-12T15:17:21;25.90;74.20
53962;DHT22;39868;53.398;6.564;2023-08-12T15:19:48;25.80;74.30
53962;DHT22;39868;53.398;6.564;2023-08-12T15:22:16;25.90;74.10
53962;DHT22;39868;53.398;6.564;2023-08-12T15:24:43;25.90;74.40
53962;DHT22;39868;53.398;6.564;2023-08-12T15:27:10;26.00;74.00
53962;DHT22;39868;53.398;6.564;2023-08-12T15:29:38;26.00;73.20
53962;DHT22;39868;53.398;6.564;2023-08-12T15:32:05;26.10;73.50
53962;DHT22;39868;53.398;6.564;2023-08-12T15:34:33;26.10;72.50
53962;DHT22;39868;53.398;6.564;2023-08-12T15:37:00;26.10;72.30
53962;DHT22;39868;53.398;6.564;2023-08-12T15:39:27;26.10;72.00
53962;DHT22;39868;53.398;6.564;2023-08-12T15:41:54;26.10;72.00